createdAt,value
2022-10-29T00:00:52.300Z,0.00
2022-10-29T00:01:52.383Z,0.00
2022-10-29T00:02:52.311Z,0.00
2022-10-29T00:03:52.257Z,0.00
2022-10-29T00:04:53.470Z,0.00
2022-10-29T00:05:52.274Z,0.00
2022-10-29T00:06:52.190Z,0.00
2022-10-29T00:07:52.376Z,0.00
2022-10-29T00:08:52.164Z,0.00
2022-10-29T00:09:52.424Z,0.00
2022-10-29T00:10:52.162Z,0.00
2022-10-29T00:11:52.126Z,0.00
2022-10-29T00:12:52.106Z,0.00
2022-10-29T00:13:52.115Z,0.00
2022-10-29T00:14:52.092Z,0.00
2022-10-29T00:15:52.130Z,0.00
2022-10-29T00:16:52.079Z,0.00
2022-10-29T00:17:52.148Z,0.00
2022-10-29T00:18:52.053Z,0.00
2022-10-29T00:19:52.075Z,0.00
2022-10-29T00:20:52.040Z,0.00
2022-10-29T00:21:52.061Z,0.00
2022-10-29T00:22:52.237Z,0.00
2022-10-29T00:23:51.996Z,0.00
2022-10-29T00:24:51.988Z,0.00
2022-10-29T00:25:51.984Z,0.00
2022-10-29T00:26:51.977Z,0.00
2022-10-29T00:27:51.964Z,0.00
2022-10-29T00:28:51.956Z,0.00
2022-10-29T00:29:51.941Z,0.00
2022-10-29T00:30:51.972Z,0.00
2022-10-29T00:31:51.996Z,0.00
2022-10-29T00:32:52.000Z,0.00
2022-10-29T00:33:51.880Z,0.00
2022-10-29T00:34:51.892Z,0.00
2022-10-29T00:35:51.859Z,0.00
2022-10-29T00:36:51.854Z,0.00
2022-10-29T00:37:51.938Z,0.00
2022-10-29T00:38:51.834Z,0.00
2022-10-29T00:39:51.859Z,0.00
2022-10-29T00:40:51.807Z,0.00
2022-10-29T00:41:51.807Z,0.00
2022-10-29T00:42:51.827Z,0.00
2022-10-29T00:43:51.859Z,0.00
2022-10-29T00:44:51.778Z,0.00
2022-10-29T00:45:51.777Z,0.00
2022-10-29T00:46:51.756Z,0.00
2022-10-29T00:47:51.722Z,0.00
2022-10-29T00:48:51.736Z,0.00
2022-10-29T00:49:51.731Z,0.00
2022-10-29T00:50:51.693Z,0.00
2022-10-29T00:51:51.698Z,0.00
2022-10-29T00:52:51.672Z,0.00
2022-10-29T00:53:51.712Z,0.00
2022-10-29T00:54:51.655Z,0.00
2022-10-29T00:55:51.657Z,0.00
2022-10-29T00:56:51.656Z,0.00
2022-10-29T00:57:51.646Z,0.00
2022-10-29T00:58:51.616Z,0.00
2022-10-29T00:59:51.601Z,0.00
2022-10-29T01:00:51.600Z,0.00
2022-10-29T01:01:51.712Z,0.00
2022-10-29T01:02:51.680Z,0.00
2022-10-29T01:03:51.577Z,0.00
2022-10-29T01:04:51.688Z,0.00
2022-10-29T01:05:51.571Z,0.00
2022-10-29T01:06:51.533Z,0.00
2022-10-29T01:07:51.543Z,0.00
2022-10-29T01:08:51.493Z,0.00
2022-10-29T01:09:51.619Z,0.00
2022-10-29T01:10:51.524Z,0.00
2022-10-29T01:11:51.498Z,0.00
2022-10-29T01:12:51.455Z,0.00
2022-10-29T01:13:51.439Z,0.00
2022-10-29T01:14:51.428Z,0.00
2022-10-29T01:15:51.408Z,0.00
2022-10-29T01:16:51.462Z,0.00
2022-10-29T01:17:51.420Z,0.00
2022-10-29T01:18:51.453Z,0.00
2022-10-29T01:19:51.381Z,0.00
2022-10-29T01:20:51.399Z,0.00
2022-10-29T01:21:51.441Z,0.00
2022-10-29T01:22:51.343Z,0.00
2022-10-29T01:23:51.344Z,0.00
2022-10-29T01:24:51.349Z,0.00
2022-10-29T01:25:51.339Z,0.00
2022-10-29T01:26:51.398Z,0.00
2022-10-29T01:27:51.371Z,0.00
2022-10-29T01:28:51.304Z,0.00
2022-10-29T01:29:51.262Z,0.00
2022-10-29T01:30:51.302Z,0.00
2022-10-29T01:31:51.251Z,0.00
2022-10-29T01:32:51.319Z,0.00
2022-10-29T01:33:51.260Z,0.00
2022-10-29T01:34:51.208Z,0.00
2022-10-29T01:35:51.199Z,0.00
2022-10-29T01:36:51.199Z,0.00
2022-10-29T01:37:51.193Z,0.00
2022-10-29T01:38:51.191Z,0.00
2022-10-29T01:39:51.169Z,0.00
2022-10-29T01:40:51.150Z,0.00
2022-10-29T01:41:51.128Z,0.00
2022-10-29T01:42:51.128Z,0.00
2022-10-29T01:43:51.158Z,0.00
2022-10-29T01:44:51.126Z,0.00
2022-10-29T01:45:51.098Z,0.00
2022-10-29T01:46:51.099Z,0.00
2022-10-29T01:47:51.078Z,0.00
2022-10-29T01:48:51.048Z,0.00
2022-10-29T01:49:51.102Z,0.00
2022-10-29T01:50:51.065Z,0.00
2022-10-29T01:51:51.053Z,0.00
2022-10-29T01:52:51.092Z,0.00
2022-10-29T01:53:51.001Z,0.00
2022-10-29T01:54:50.988Z,0.00
2022-10-29T01:55:50.982Z,0.00
2022-10-29T01:56:50.968Z,0.00
2022-10-29T01:57:50.973Z,0.00
2022-10-29T01:58:50.975Z,0.00
2022-10-29T01:59:56.024Z,0.00
2022-10-29T02:00:50.966Z,0.00
2022-10-29T02:01:50.979Z,0.00
2022-10-29T02:02:50.925Z,0.00
2022-10-29T02:03:50.885Z,0.00
2022-10-29T02:04:50.884Z,0.00
2022-10-29T02:05:50.864Z,0.00
2022-10-29T02:06:50.858Z,0.00
2022-10-29T02:07:50.998Z,0.00
2022-10-29T02:08:50.852Z,0.00
2022-10-29T02:09:51.588Z,0.00
2022-10-29T02:10:50.835Z,0.00
2022-10-29T02:11:50.809Z,0.00
2022-10-29T02:12:50.810Z,0.00
2022-10-29T02:13:50.800Z,0.00
2022-10-29T02:14:50.768Z,0.00
2022-10-29T02:15:50.772Z,0.00
2022-10-29T02:16:50.810Z,0.00
2022-10-29T02:17:50.749Z,0.00
2022-10-29T02:18:50.757Z,0.00
2022-10-29T02:19:50.735Z,0.00
2022-10-29T02:20:50.731Z,0.00
2022-10-29T02:21:50.694Z,0.00
2022-10-29T02:22:50.691Z,0.00
2022-10-29T02:23:50.685Z,0.00
2022-10-29T02:24:50.689Z,0.00
2022-10-29T02:25:50.770Z,0.00
2022-10-29T02:26:50.704Z,0.00
2022-10-29T02:27:50.672Z,0.00
2022-10-29T02:28:50.613Z,0.00
2022-10-29T02:29:50.615Z,0.00
2022-10-29T02:30:50.646Z,0.00
2022-10-29T02:31:50.587Z,0.00
2022-10-29T02:32:50.571Z,0.00
2022-10-29T02:33:50.558Z,0.00
2022-10-29T02:34:50.544Z,0.00
2022-10-29T02:35:50.559Z,0.00
2022-10-29T02:36:50.583Z,0.00
2022-10-29T02:37:50.520Z,0.00
2022-10-29T02:38:50.526Z,0.00
2022-10-29T02:39:50.511Z,0.00
2022-10-29T02:40:50.473Z,0.00
2022-10-29T02:41:50.474Z,0.00
2022-10-29T02:42:50.475Z,0.00
2022-10-29T02:43:50.442Z,0.00
2022-10-29T02:44:50.488Z,0.00
2022-10-29T02:45:50.447Z,0.00
2022-10-29T02:46:50.437Z,0.00
2022-10-29T02:47:50.415Z,0.00
2022-10-29T02:48:50.425Z,0.00
2022-10-29T02:49:50.386Z,0.00
2022-10-29T02:50:50.415Z,0.00
2022-10-29T02:51:50.361Z,0.00
2022-10-29T02:52:50.360Z,0.00
2022-10-29T02:53:50.348Z,0.00
2022-10-29T02:54:50.331Z,0.00
2022-10-29T02:55:50.350Z,0.00
2022-10-29T02:56:50.294Z,0.00
2022-10-29T02:57:50.306Z,0.00
2022-10-29T02:58:50.307Z,0.00
2022-10-29T02:59:51.170Z,0.00
2022-10-29T03:00:51.148Z,0.00
2022-10-29T03:01:50.737Z,0.00
2022-10-29T03:02:51.136Z,0.00
2022-10-29T03:03:50.520Z,0.00
2022-10-29T03:04:50.277Z,0.00
2022-10-29T03:05:50.252Z,0.00
2022-10-29T03:06:50.194Z,0.00
2022-10-29T03:07:50.231Z,0.00
2022-10-29T03:08:50.195Z,0.00
2022-10-29T03:09:51.170Z,0.00
2022-10-29T03:10:50.467Z,0.00
2022-10-29T03:11:52.098Z,0.00
2022-10-29T03:12:50.132Z,0.00
2022-10-29T03:13:50.454Z,0.00
2022-10-29T03:14:50.121Z,0.00
2022-10-29T03:15:50.478Z,0.00
2022-10-29T03:16:50.155Z,0.00
2022-10-29T03:17:51.092Z,0.00
2022-10-29T03:18:50.073Z,0.00
2022-10-29T03:19:50.359Z,0.00
2022-10-29T03:20:50.040Z,0.00
2022-10-29T03:21:50.326Z,0.00
2022-10-29T03:22:50.393Z,0.00
2022-10-29T03:23:50.024Z,0.00
2022-10-29T03:24:49.989Z,0.00
2022-10-29T03:25:54.589Z,0.00
2022-10-29T03:26:49.981Z,0.00
2022-10-29T03:27:49.971Z,0.00
2022-10-29T03:28:50.018Z,0.00
2022-10-29T03:29:49.958Z,0.00
2022-10-29T03:30:50.616Z,0.00
2022-10-29T03:31:49.897Z,0.00
2022-10-29T03:32:49.908Z,0.00
2022-10-29T03:33:49.912Z,0.00
2022-10-29T03:34:49.867Z,0.00
2022-10-29T03:35:49.961Z,0.00
2022-10-29T03:36:49.860Z,0.00
2022-10-29T03:37:50.865Z,0.00
2022-10-29T03:38:50.115Z,0.00
2022-10-29T03:39:49.846Z,0.00
2022-10-29T03:40:49.844Z,0.00
2022-10-29T03:41:49.794Z,0.00
2022-10-29T03:42:49.787Z,0.00
2022-10-29T03:43:49.804Z,0.00
2022-10-29T03:44:49.794Z,0.00
2022-10-29T03:45:49.758Z,0.00
2022-10-29T03:46:49.993Z,0.00
2022-10-29T03:47:49.740Z,0.00
2022-10-29T03:48:49.717Z,0.00
2022-10-29T03:49:49.749Z,0.00
2022-10-29T03:50:49.720Z,0.00
2022-10-29T03:51:49.700Z,0.00
2022-10-29T03:52:49.710Z,0.00
2022-10-29T03:53:50.613Z,0.00
2022-10-29T03:54:50.142Z,0.00
2022-10-29T03:55:49.677Z,0.00
2022-10-29T03:56:49.642Z,0.00
2022-10-29T03:57:50.622Z,0.00
2022-10-29T03:58:49.631Z,0.00
2022-10-29T03:59:52.448Z,0.00
2022-10-29T04:00:49.616Z,0.00
2022-10-29T04:01:49.705Z,0.00
2022-10-29T04:02:49.628Z,0.00
2022-10-29T04:03:49.899Z,0.00
2022-10-29T04:04:49.813Z,0.00
2022-10-29T04:05:49.569Z,0.00
2022-10-29T04:06:49.544Z,0.00
2022-10-29T04:07:49.564Z,0.00
2022-10-29T04:08:50.113Z,0.00
2022-10-29T04:09:49.548Z,0.00
2022-10-29T04:10:49.467Z,0.00
2022-10-29T04:11:49.481Z,0.00
2022-10-29T04:12:49.486Z,0.00
2022-10-29T04:13:49.443Z,0.00
2022-10-29T04:15:49.407Z,0.00
2022-10-29T04:16:49.442Z,0.00
2022-10-29T04:17:49.429Z,0.00
2022-10-29T04:18:49.420Z,0.00
2022-10-29T04:19:49.438Z,0.00
2022-10-29T04:27:01.830Z,0.00
2022-10-29T04:28:44.255Z,0.00
2022-10-29T04:29:03.528Z,0.00
2022-10-29T04:30:03.590Z,0.00
2022-10-29T04:31:03.513Z,0.00
2022-10-29T04:32:03.595Z,0.00
2022-10-29T04:33:04.145Z,0.00
2022-10-29T04:34:04.253Z,0.00
2022-10-29T04:35:03.472Z,0.00
2022-10-29T04:36:03.432Z,0.00
2022-10-29T04:37:03.482Z,0.00
2022-10-29T04:38:03.505Z,0.00
2022-10-29T04:39:03.450Z,0.00
2022-10-29T04:40:03.405Z,0.00
2022-10-29T04:41:03.386Z,0.00
2022-10-29T04:42:04.174Z,0.00
2022-10-29T04:43:03.376Z,0.00
2022-10-29T04:44:03.404Z,0.00
2022-10-29T04:45:03.379Z,0.00
2022-10-29T04:46:03.326Z,0.00
2022-10-29T04:47:03.353Z,0.00
2022-10-29T04:48:03.306Z,0.00
2022-10-29T04:49:03.417Z,0.00
2022-10-29T04:50:03.286Z,0.00
2022-10-29T04:51:03.275Z,0.00
2022-10-29T04:52:03.255Z,0.00
2022-10-29T04:53:03.275Z,0.00
2022-10-29T04:54:03.295Z,0.00
2022-10-29T04:55:03.251Z,0.00
2022-10-29T04:56:03.242Z,0.00
2022-10-29T04:57:03.212Z,0.00
2022-10-29T04:58:03.196Z,0.00
2022-10-29T04:59:03.186Z,0.00
2022-10-29T05:00:03.225Z,0.00
2022-10-29T05:01:03.329Z,0.00
2022-10-29T05:02:03.198Z,0.00
2022-10-29T05:03:03.151Z,0.00
2022-10-29T05:04:03.131Z,0.00
2022-10-29T05:05:03.120Z,0.00
2022-10-29T05:06:03.157Z,0.00
2022-10-29T05:07:03.125Z,0.00
2022-10-29T05:08:03.105Z,0.00
2022-10-29T05:09:07.254Z,0.00
2022-10-29T05:10:03.104Z,0.00
2022-10-29T05:11:03.058Z,0.00
2022-10-29T05:12:03.088Z,0.00
2022-10-29T05:13:03.332Z,0.00
2022-10-29T05:14:03.306Z,0.00
2022-10-29T05:15:03.020Z,0.00
2022-10-29T05:16:02.997Z,0.00
2022-10-29T05:17:03.096Z,0.00
2022-10-29T05:18:03.001Z,0.00
2022-10-29T05:19:02.964Z,0.00
2022-10-29T05:20:02.945Z,0.00
2022-10-29T05:21:03.213Z,0.00
2022-10-29T05:22:02.926Z,0.00
2022-10-29T05:23:02.996Z,0.00
2022-10-29T05:24:02.932Z,0.00
2022-10-29T05:25:03.669Z,0.00
2022-10-29T05:26:02.902Z,0.00
2022-10-29T05:27:02.877Z,0.00
2022-10-29T05:28:02.864Z,0.00
2022-10-29T05:29:02.889Z,0.00
2022-10-29T05:30:02.856Z,0.00
2022-10-29T05:31:02.835Z,0.00
2022-10-29T05:32:02.838Z,0.00
2022-10-29T05:33:02.876Z,0.00
2022-10-29T05:34:02.878Z,0.00
2022-10-29T05:35:02.794Z,0.00
2022-10-29T05:36:02.795Z,0.00
2022-10-29T05:37:02.819Z,0.00
2022-10-29T05:38:02.792Z,0.00
2022-10-29T05:39:02.763Z,0.00
2022-10-29T05:40:02.743Z,0.00
2022-10-29T05:41:02.747Z,0.00
2022-10-29T05:42:02.741Z,0.00
2022-10-29T05:43:02.716Z,0.00
2022-10-29T05:44:02.764Z,0.00
2022-10-29T05:45:02.716Z,0.00
2022-10-29T05:46:03.189Z,0.00
2022-10-29T05:47:02.653Z,0.00
2022-10-29T05:48:02.709Z,0.00
2022-10-29T05:49:02.634Z,0.00
2022-10-29T05:50:02.619Z,4.00
2022-10-29T05:51:02.644Z,4.00
2022-10-29T05:52:02.615Z,4.00
2022-10-29T05:53:02.599Z,4.00
2022-10-29T05:54:02.597Z,4.00
2022-10-29T05:55:02.609Z,4.00
2022-10-29T05:56:02.599Z,4.00
2022-10-29T05:57:02.559Z,8.00
2022-10-29T05:58:02.536Z,4.00
2022-10-29T05:59:02.586Z,8.00
2022-10-29T06:00:02.513Z,4.00
2022-10-29T06:01:02.501Z,8.00
2022-10-29T06:02:02.650Z,12.00
2022-10-29T06:03:02.598Z,8.00
2022-10-29T06:04:02.477Z,8.00
2022-10-29T06:05:03.152Z,8.00
2022-10-29T06:06:02.521Z,8.00
2022-10-29T06:07:02.488Z,8.00
2022-10-29T06:08:02.438Z,8.00
2022-10-29T06:09:02.442Z,8.00
2022-10-29T06:10:02.428Z,8.00
2022-10-29T06:11:02.412Z,8.00
2022-10-29T06:12:02.407Z,12.00
2022-10-29T06:13:02.381Z,8.00
2022-10-29T06:14:02.395Z,8.00
2022-10-29T06:15:02.364Z,8.00
2022-10-29T06:16:02.344Z,12.00
2022-10-29T06:17:02.341Z,12.00
2022-10-29T06:18:02.352Z,12.00
2022-10-29T06:19:02.337Z,16.00
2022-10-29T06:20:02.342Z,28.00
2022-10-29T06:21:02.338Z,36.00
2022-10-29T06:22:02.267Z,40.00
2022-10-29T06:23:02.282Z,48.00
2022-10-29T06:24:02.259Z,52.00
2022-10-29T06:25:02.259Z,60.00
2022-10-29T06:26:02.229Z,64.00
2022-10-29T06:27:02.237Z,64.00
2022-10-29T06:28:02.223Z,76.00
2022-10-29T06:29:02.214Z,84.00
2022-10-29T06:30:02.173Z,92.00
2022-10-29T06:31:02.168Z,96.00
2022-10-29T06:32:02.186Z,104.00
2022-10-29T06:33:02.190Z,112.00
2022-10-29T06:34:04.739Z,120.00
2022-10-29T06:35:03.196Z,112.00
2022-10-29T06:36:02.131Z,112.00
2022-10-29T06:37:02.094Z,140.00
2022-10-29T06:38:04.043Z,152.00
2022-10-29T06:39:02.101Z,156.00
2022-10-29T06:40:02.085Z,156.00
2022-10-29T06:41:02.077Z,176.00
2022-10-29T06:42:02.061Z,176.00
2022-10-29T06:43:02.038Z,188.00
2022-10-29T06:44:02.044Z,192.00
2022-10-29T06:45:02.889Z,188.00
2022-10-29T06:46:02.131Z,192.00
2022-10-29T06:47:01.998Z,236.00
2022-10-29T06:48:01.991Z,236.00
2022-10-29T06:49:02.032Z,196.00
2022-10-29T06:50:01.967Z,304.00
2022-10-29T06:51:01.984Z,308.00
2022-10-29T06:52:01.942Z,336.00
2022-10-29T06:53:01.935Z,336.00
2022-10-29T06:54:01.977Z,352.00
2022-10-29T06:55:01.902Z,340.00
2022-10-29T06:56:01.924Z,276.00
2022-10-29T06:57:01.911Z,276.00
2022-10-29T06:58:01.878Z,252.00
2022-10-29T06:59:01.893Z,240.00
2022-10-29T07:00:05.686Z,200.00
2022-10-29T07:01:01.884Z,192.00
2022-10-29T07:02:01.960Z,168.00
2022-10-29T07:03:01.977Z,148.00
2022-10-29T07:04:01.847Z,160.00
2022-10-29T07:05:01.817Z,168.00
2022-10-29T07:06:01.830Z,172.00
2022-10-29T07:07:01.804Z,140.00
2022-10-29T07:08:01.802Z,188.00
2022-10-29T07:09:01.793Z,180.00
2022-10-29T07:10:02.165Z,224.00
2022-10-29T07:11:01.725Z,232.00
2022-10-29T07:12:01.743Z,284.00
2022-10-29T07:13:01.738Z,300.00
2022-10-29T07:14:01.718Z,324.00
2022-10-29T07:15:01.700Z,316.00
2022-10-29T07:16:01.684Z,324.00
2022-10-29T07:17:01.775Z,348.00
2022-10-29T07:18:01.675Z,368.00
2022-10-29T07:19:01.711Z,392.00
2022-10-29T07:20:01.638Z,412.00
2022-10-29T07:21:01.760Z,428.00
2022-10-29T07:22:01.738Z,440.00
2022-10-29T07:23:01.629Z,468.00
2022-10-29T07:24:01.644Z,528.00
2022-10-29T07:25:01.809Z,572.00
2022-10-29T07:26:01.571Z,596.00
2022-10-29T07:27:01.557Z,608.00
2022-10-29T07:28:01.831Z,616.00
2022-10-29T07:29:01.549Z,620.00
2022-10-29T07:30:01.529Z,616.00
2022-10-29T07:31:01.686Z,620.00
2022-10-29T07:32:01.518Z,620.00
2022-10-29T07:33:01.528Z,612.00
2022-10-29T07:34:01.505Z,624.00
2022-10-29T07:35:01.481Z,644.00
2022-10-29T07:36:01.530Z,664.00
2022-10-29T07:37:02.257Z,684.00
2022-10-29T07:38:05.356Z,788.00
2022-10-29T07:39:01.454Z,856.00
2022-10-29T07:40:01.409Z,892.00
2022-10-29T07:41:01.386Z,808.00
2022-10-29T07:42:01.431Z,736.00
2022-10-29T07:43:01.387Z,692.00
2022-10-29T07:44:01.407Z,580.00
2022-10-29T07:45:01.424Z,688.00
2022-10-29T07:46:02.138Z,612.00
2022-10-29T07:47:01.362Z,660.00
2022-10-29T07:48:02.924Z,720.00
2022-10-29T07:49:01.336Z,660.00
2022-10-29T07:50:01.319Z,680.00
2022-10-29T07:51:04.006Z,708.00
2022-10-29T07:52:01.276Z,744.00
2022-10-29T07:53:01.275Z,748.00
2022-10-29T07:54:01.256Z,884.00
2022-10-29T07:55:01.258Z,1040.00
2022-10-29T07:56:01.257Z,896.00
2022-10-29T07:57:01.270Z,868.00
2022-10-29T07:58:01.237Z,932.00
2022-10-29T07:59:01.206Z,936.00
2022-10-29T08:00:02.284Z,1120.00
2022-10-29T08:01:01.247Z,1200.00
2022-10-29T08:02:01.200Z,1012.00
2022-10-29T08:03:01.170Z,1068.00
2022-10-29T08:04:01.182Z,996.00
2022-10-29T08:05:01.144Z,1092.00
2022-10-29T08:06:01.158Z,1116.00
2022-10-29T08:07:01.134Z,1076.00
2022-10-29T08:08:01.284Z,1148.00
2022-10-29T08:09:01.211Z,1284.00
2022-10-29T08:10:01.088Z,1388.00
2022-10-29T08:11:01.064Z,1436.00
2022-10-29T08:12:01.067Z,1520.00
2022-10-29T08:13:01.662Z,1528.00
2022-10-29T08:14:01.058Z,1516.00
2022-10-29T08:15:01.291Z,1576.00
2022-10-29T08:16:01.816Z,1584.00
2022-10-29T08:17:01.003Z,1644.00
2022-10-29T08:18:01.248Z,1628.00
2022-10-29T08:19:01.038Z,1640.00
2022-10-29T08:20:00.999Z,1672.00
2022-10-29T08:21:01.062Z,1696.00
2022-10-29T08:22:01.118Z,1632.00
2022-10-29T08:23:01.556Z,1604.00
2022-10-29T08:24:01.205Z,1492.00
2022-10-29T08:25:00.922Z,1336.00
2022-10-29T08:26:00.912Z,1332.00
2022-10-29T08:27:00.932Z,1344.00
2022-10-29T08:28:01.121Z,1268.00
2022-10-29T08:29:00.881Z,1248.00
2022-10-29T08:30:01.385Z,1204.00
2022-10-29T08:31:01.108Z,1188.00
2022-10-29T08:32:00.938Z,1148.00
2022-10-29T08:33:01.296Z,1116.00
2022-10-29T08:34:00.825Z,1076.00
2022-10-29T08:35:00.806Z,1136.00
2022-10-29T08:36:00.947Z,1128.00
2022-10-29T08:37:01.071Z,996.00
2022-10-29T08:38:00.811Z,952.00
2022-10-29T08:39:00.764Z,960.00
2022-10-29T08:40:00.757Z,880.00
2022-10-29T08:41:00.758Z,792.00
2022-10-29T08:42:00.812Z,836.00
2022-10-29T08:43:00.713Z,872.00
2022-10-29T08:45:00.711Z,824.00
2022-10-29T08:46:01.351Z,860.00
2022-10-29T08:47:03.769Z,816.00
2022-10-29T08:48:00.686Z,736.00
2022-10-29T08:49:00.709Z,788.00
2022-10-29T08:50:00.681Z,804.00
2022-10-29T08:51:00.625Z,812.00
2022-10-29T08:52:00.757Z,888.00
2022-10-29T08:55:00.610Z,888.00
2022-10-29T08:56:01.304Z,908.00
2022-10-29T08:57:00.560Z,964.00
2022-10-29T08:58:01.118Z,1068.00
2022-10-29T08:59:01.519Z,1148.00
2022-10-29T09:00:01.116Z,1252.00
2022-10-29T09:01:01.057Z,1400.00
2022-10-29T09:02:00.995Z,1616.00
2022-10-29T09:03:00.788Z,1884.00
2022-10-29T09:04:00.701Z,2400.00
2022-10-29T09:05:00.699Z,2932.00
2022-10-29T09:06:00.737Z,3264.00
2022-10-29T09:07:00.552Z,3800.00
2022-10-29T09:08:02.319Z,4328.00
2022-10-29T09:09:00.606Z,4028.00
2022-10-29T09:10:00.691Z,3528.00
2022-10-29T09:11:00.937Z,3308.00
2022-10-29T09:12:01.381Z,3188.00
2022-10-29T09:13:00.649Z,2556.00
2022-10-29T09:14:01.687Z,2200.00
2022-10-29T09:15:00.666Z,2056.00
2022-10-29T09:16:00.615Z,1840.00
2022-10-29T09:17:00.572Z,1756.00
2022-10-29T09:18:00.664Z,1888.00
2022-10-29T09:19:00.598Z,1860.00
2022-10-29T09:20:01.048Z,1748.00
2022-10-29T09:21:00.431Z,1488.00
2022-10-29T09:22:00.614Z,1212.00
2022-10-29T09:23:00.623Z,1544.00
2022-10-29T09:24:00.820Z,1496.00
2022-10-29T09:25:01.020Z,1272.00
2022-10-29T09:26:00.661Z,1524.00
2022-10-29T09:27:00.407Z,1612.00
2022-10-29T09:28:00.489Z,1516.00
2022-10-29T09:29:00.630Z,1500.00
2022-10-29T09:30:00.551Z,1376.00
2022-10-29T09:31:01.362Z,1532.00
2022-10-29T09:32:00.836Z,1720.00
2022-10-29T09:33:02.158Z,1544.00
2022-10-29T09:34:01.851Z,1344.00
2022-10-29T09:35:00.326Z,1164.00
2022-10-29T09:36:00.524Z,1028.00
2022-10-29T09:37:00.710Z,860.00
2022-10-29T09:38:00.594Z,868.00
2022-10-29T09:39:00.726Z,948.00
2022-10-29T09:40:01.175Z,1028.00
2022-10-29T09:41:00.986Z,1004.00
2022-10-29T09:42:00.282Z,892.00
2022-10-29T09:43:00.362Z,1056.00
2022-10-29T09:44:01.258Z,1104.00
2022-10-29T09:45:01.945Z,1096.00
2022-10-29T09:46:00.015Z,1244.00
2022-10-29T09:47:00.585Z,1436.00
2022-10-29T09:48:01.158Z,1492.00
2022-10-29T09:49:00.076Z,1408.00
2022-10-29T09:50:05.268Z,1196.00
2022-10-29T09:50:59.966Z,1208.00
2022-10-29T09:51:59.976Z,1284.00
2022-10-29T09:53:00.158Z,1184.00
2022-10-29T09:53:59.937Z,1132.00
2022-10-29T09:54:59.979Z,1088.00
2022-10-29T09:55:59.911Z,1072.00
2022-10-29T09:56:59.885Z,1080.00
2022-10-29T09:58:08.075Z,1072.00
2022-10-29T09:58:59.862Z,1072.00
2022-10-29T10:00:00.538Z,1100.00
2022-10-29T10:01:00.361Z,1112.00
2022-10-29T10:01:59.898Z,1128.00
2022-10-29T10:03:00.121Z,1160.00
2022-10-29T10:04:59.808Z,1300.00
2022-10-29T10:05:59.782Z,1332.00
2022-10-29T10:06:59.788Z,1592.00
2022-10-29T10:07:59.766Z,2528.00
2022-10-29T10:09:00.861Z,2496.00
2022-10-29T10:09:59.792Z,2016.00
2022-10-29T10:11:02.355Z,2556.00
2022-10-29T10:11:59.776Z,3012.00
2022-10-29T10:12:59.761Z,3276.00
2022-10-29T10:13:59.762Z,3580.00
2022-10-29T10:14:59.711Z,3716.00
2022-10-29T10:15:59.745Z,3868.00
2022-10-29T10:16:59.682Z,4244.00
2022-10-29T10:18:00.306Z,4312.00
2022-10-29T10:18:59.658Z,4388.00
2022-10-29T10:19:59.644Z,4252.00
2022-10-29T10:20:59.640Z,4400.00
2022-10-29T10:21:59.620Z,4128.00
2022-10-29T10:22:59.902Z,3796.00
2022-10-29T10:23:59.599Z,2912.00
2022-10-29T10:24:59.608Z,2952.00
2022-10-29T10:26:04.139Z,3412.00
2022-10-29T10:26:59.687Z,2608.00
2022-10-29T10:27:59.771Z,2320.00
2022-10-29T10:29:01.220Z,1608.00
2022-10-29T10:29:59.527Z,1360.00
2022-10-29T10:30:59.892Z,1500.00
2022-10-29T10:31:59.538Z,2188.00
2022-10-29T10:32:59.539Z,2508.00
2022-10-29T10:33:59.502Z,2756.00
2022-10-29T10:34:59.461Z,1784.00
2022-10-29T10:36:00.494Z,1384.00
2022-10-29T10:36:59.465Z,1264.00
2022-10-29T10:38:00.331Z,1272.00
2022-10-29T10:38:59.544Z,1376.00
2022-10-29T10:39:59.428Z,1584.00
2022-10-29T10:41:00.551Z,2224.00
2022-10-29T10:41:59.938Z,1944.00
2022-10-29T10:43:03.099Z,2068.00
2022-10-29T10:43:59.433Z,2348.00
2022-10-29T10:44:59.839Z,3024.00
2022-10-29T10:45:59.442Z,3904.00
2022-10-29T10:47:00.460Z,3584.00
2022-10-29T10:47:59.967Z,2704.00
2022-10-29T10:48:59.314Z,2576.00
2022-10-29T10:50:00.364Z,3112.00
2022-10-29T10:50:59.417Z,2432.00
2022-10-29T10:51:59.528Z,3380.00
2022-10-29T10:52:59.680Z,4456.00
2022-10-29T10:54:00.229Z,3612.00
2022-10-29T10:54:59.477Z,2248.00
2022-10-29T10:55:59.254Z,2148.00
2022-10-29T10:56:59.297Z,2208.00
2022-10-29T10:57:59.232Z,1960.00
2022-10-29T10:58:59.797Z,1752.00
2022-10-29T11:00:02.480Z,1548.00
2022-10-29T11:01:00.364Z,1644.00
2022-10-29T11:01:59.364Z,1864.00
2022-10-29T11:02:59.615Z,2268.00
2022-10-29T11:03:59.199Z,2424.00
2022-10-29T11:05:00.930Z,2608.00
2022-10-29T11:05:59.132Z,2720.00
2022-10-29T11:06:59.162Z,2764.00
2022-10-29T11:08:00.086Z,3856.00
2022-10-29T11:08:59.134Z,4292.00
2022-10-29T11:09:59.983Z,3008.00
2022-10-29T11:10:59.113Z,2220.00
2022-10-29T11:11:59.442Z,2040.00
2022-10-29T11:12:59.075Z,1928.00
2022-10-29T11:13:59.070Z,1328.00
2022-10-29T11:14:59.091Z,1240.00
2022-10-29T11:15:59.023Z,1276.00
2022-10-29T11:16:59.046Z,1252.00
2022-10-29T11:17:59.193Z,1972.00
2022-10-29T11:18:59.106Z,1936.00
2022-10-29T11:19:58.969Z,1836.00
2022-10-29T11:20:58.971Z,1356.00
2022-10-29T11:21:58.974Z,2052.00
2022-10-29T11:22:59.330Z,2172.00
2022-10-29T11:23:58.960Z,2264.00
2022-10-29T11:24:59.119Z,2152.00
2022-10-29T11:25:58.931Z,2248.00
2022-10-29T11:26:58.906Z,2472.00
2022-10-29T11:27:58.893Z,2732.00
2022-10-29T11:28:58.857Z,2664.00
2022-10-29T11:29:58.890Z,2272.00
2022-10-29T11:30:59.987Z,2668.00
2022-10-29T11:31:59.264Z,2684.00
2022-10-29T11:33:01.134Z,2944.00
2022-10-29T11:33:58.993Z,2864.00
2022-10-29T11:35:00.229Z,2540.00
2022-10-29T11:36:01.494Z,2484.00
2022-10-29T11:37:00.326Z,2440.00
2022-10-29T11:37:59.148Z,2708.00
2022-10-29T11:38:58.745Z,2412.00
2022-10-29T11:39:58.767Z,1960.00
2022-10-29T11:40:59.988Z,3000.00
2022-10-29T11:43:50.023Z,2424.00
2022-10-29T11:44:51.002Z,2764.00
2022-10-29T11:45:51.048Z,2024.00
2022-10-29T11:46:51.281Z,2204.00
2022-10-29T11:47:50.987Z,2060.00
2022-10-29T11:48:51.127Z,1960.00
2022-10-29T11:49:50.939Z,2084.00
2022-10-29T11:50:51.790Z,2160.00
2022-10-29T11:51:50.950Z,2108.00
2022-10-29T11:52:50.927Z,2192.00
2022-10-29T11:53:51.623Z,2108.00
2022-10-29T11:54:50.892Z,2052.00
2022-10-29T11:55:51.781Z,1924.00
2022-10-29T11:56:50.892Z,2136.00
2022-10-29T11:57:50.857Z,1808.00
2022-10-29T11:58:50.865Z,1984.00
2022-10-29T11:59:50.823Z,2136.00
2022-10-29T12:00:50.812Z,2712.00
2022-10-29T12:01:50.946Z,2684.00
2022-10-29T12:02:50.785Z,2636.00
2022-10-29T12:03:50.790Z,2436.00
2022-10-29T12:04:50.800Z,1672.00
2022-10-29T12:05:50.758Z,2040.00
2022-10-29T12:06:50.794Z,1972.00
2022-10-29T12:07:50.730Z,1620.00
2022-10-29T12:08:50.719Z,1548.00
2022-10-29T12:09:50.713Z,1348.00
2022-10-29T12:10:50.751Z,1352.00
2022-10-29T12:11:50.717Z,1412.00
2022-10-29T12:12:50.696Z,1388.00
2022-10-29T12:13:50.705Z,1520.00
2022-10-29T12:14:50.657Z,1576.00
2022-10-29T12:15:50.645Z,1724.00
2022-10-29T12:16:50.658Z,1720.00
2022-10-29T12:17:50.717Z,1444.00
2022-10-29T12:18:50.615Z,1248.00
2022-10-29T12:19:50.786Z,1228.00
2022-10-29T12:20:50.580Z,1304.00
2022-10-29T12:21:50.590Z,1364.00
2022-10-29T12:22:50.564Z,1468.00
2022-10-29T12:23:50.551Z,1452.00
2022-10-29T12:24:51.444Z,1664.00
2022-10-29T12:25:50.515Z,1660.00
2022-10-29T12:26:50.530Z,1516.00
2022-10-29T12:27:50.547Z,1552.00
2022-10-29T12:28:50.497Z,1732.00
2022-10-29T12:29:50.570Z,1568.00
2022-10-29T12:30:50.489Z,1688.00
2022-10-29T12:31:50.460Z,1588.00
2022-10-29T12:32:50.462Z,1344.00
2022-10-29T12:33:50.468Z,1388.00
2022-10-29T12:34:50.439Z,1504.00
2022-10-29T12:35:50.503Z,1552.00
2022-10-29T12:36:53.320Z,1528.00
2022-10-29T12:37:50.420Z,1704.00
2022-10-29T12:38:50.383Z,1392.00
2022-10-29T12:39:50.382Z,1528.00
2022-10-29T12:40:50.360Z,1764.00
2022-10-29T12:41:50.384Z,1176.00
2022-10-29T12:42:50.370Z,1244.00
2022-10-29T12:43:50.362Z,1088.00
2022-10-29T12:44:50.314Z,1028.00
2022-10-29T12:46:14.378Z,1008.00
2022-10-29T12:46:50.958Z,1060.00
2022-10-29T12:47:50.279Z,1088.00
2022-10-29T12:48:50.294Z,1032.00
2022-10-29T12:49:50.282Z,1036.00
2022-10-29T12:50:50.274Z,1104.00
2022-10-29T12:51:50.304Z,1144.00
2022-10-29T12:52:50.814Z,1084.00
2022-10-29T12:53:50.216Z,1132.00
2022-10-29T12:54:50.210Z,1132.00
2022-10-29T12:55:50.215Z,1128.00
2022-10-29T12:56:50.624Z,1156.00